createdAt,value
2023-02-23T00:01:58.229Z,8.92
2023-02-23T00:04:25.522Z,8.76
2023-02-23T00:06:53.500Z,8.94
2023-02-23T00:09:24.763Z,9.02
2023-02-23T00:11:57.474Z,8.88
2023-02-23T00:14:31.178Z,9.04
2023-02-23T00:17:00.141Z,8.94
2023-02-23T00:19:27.657Z,8.85
2023-02-23T00:21:56.306Z,8.96
2023-02-23T00:24:27.069Z,9.01
2023-02-23T00:26:54.460Z,8.83
2023-02-23T00:29:24.795Z,8.98
2023-02-23T00:31:52.692Z,9.02
2023-02-23T00:34:21.586Z,9.25
2023-02-23T00:36:55.032Z,9.22
2023-02-23T00:39:26.333Z,8.86
2023-02-23T00:41:55.684Z,9.00
2023-02-23T00:44:23.845Z,9.35
2023-02-23T00:46:52.395Z,9.13
2023-02-23T00:49:21.885Z,9.16
2023-02-23T00:51:49.506Z,8.86
2023-02-23T00:54:17.311Z,8.81
2023-02-23T00:56:45.937Z,9.07
2023-02-23T00:59:14.350Z,8.79
2023-02-23T01:01:42.136Z,9.25
2023-02-23T01:04:11.347Z,9.29
2023-02-23T01:06:40.642Z,8.94
2023-02-23T01:09:14.131Z,8.74
2023-02-23T01:11:42.153Z,8.85
2023-02-23T01:14:10.549Z,8.78
2023-02-23T01:16:38.978Z,8.97
2023-02-23T01:19:07.028Z,8.76
2023-02-23T01:21:39.863Z,8.56
2023-02-23T01:24:10.284Z,8.49
2023-02-23T01:26:40.533Z,8.26
2023-02-23T01:29:16.666Z,8.19
2023-02-23T01:31:47.694Z,8.45
2023-02-23T01:34:19.717Z,8.66
2023-02-23T01:36:47.340Z,8.45
2023-02-23T01:39:17.888Z,8.33
2023-02-23T01:41:45.630Z,8.26
2023-02-23T01:44:13.123Z,8.38
2023-02-23T01:46:43.764Z,8.46
2023-02-23T01:49:20.273Z,8.67
2023-02-23T01:51:55.820Z,8.70
2023-02-23T01:54:26.593Z,8.55
2023-02-23T01:56:58.474Z,8.52
2023-02-23T01:59:34.254Z,8.61
2023-02-23T02:02:05.234Z,8.99
2023-02-23T02:04:46.697Z,8.85
2023-02-23T02:07:23.617Z,8.75
2023-02-23T02:10:22.093Z,8.31
2023-02-23T02:12:52.838Z,8.26
2023-02-23T02:15:22.564Z,8.27
2023-02-23T02:18:23.783Z,8.24
2023-02-23T02:21:04.716Z,8.64
2023-02-23T02:23:59.442Z,8.74
2023-02-23T02:26:45.395Z,8.72
2023-02-23T02:29:31.308Z,8.29
2023-02-23T02:32:14.152Z,8.18
2023-02-23T02:34:42.670Z,8.38
2023-02-23T02:37:36.337Z,7.89
2023-02-23T02:40:21.458Z,8.04
2023-02-23T02:43:00.586Z,8.26
2023-02-23T02:45:43.705Z,7.90
2023-02-23T02:48:49.810Z,8.22
2023-02-23T02:51:26.089Z,8.07
2023-02-23T02:54:07.528Z,8.29
2023-02-23T02:56:40.386Z,8.54
2023-02-23T02:59:33.263Z,8.30
2023-02-23T03:02:19.657Z,7.79
2023-02-23T03:05:05.823Z,8.04
2023-02-23T03:08:11.589Z,8.15
2023-02-23T03:11:14.232Z,8.25
2023-02-23T03:14:06.560Z,8.43
2023-02-23T03:17:07.685Z,8.07
2023-02-23T03:20:13.561Z,7.79
2023-02-23T03:23:09.730Z,8.22
2023-02-23T03:26:13.345Z,8.24
2023-02-23T03:29:14.469Z,8.30
2023-02-23T03:32:07.224Z,8.00
2023-02-23T03:35:18.416Z,8.05
2023-02-23T03:38:12.969Z,8.01
2023-02-23T03:41:01.035Z,7.91
2023-02-23T03:43:51.658Z,8.04
2023-02-23T03:46:38.679Z,7.86
2023-02-23T03:49:27.376Z,7.83
2023-02-23T03:52:18.815Z,7.83
2023-02-23T03:55:10.273Z,7.87
2023-02-23T03:57:57.861Z,8.14
2023-02-23T04:00:48.971Z,8.01
2023-02-23T04:03:36.920Z,7.70
2023-02-23T04:06:26.518Z,7.66
2023-02-23T04:09:14.771Z,7.45
2023-02-23T04:12:20.755Z,7.54
2023-02-23T04:15:01.835Z,7.32
2023-02-23T04:17:29.998Z,7.47
2023-02-23T04:19:57.488Z,7.19
2023-02-23T04:22:25.801Z,7.43
2023-02-23T04:24:53.284Z,7.52
2023-02-23T04:27:20.574Z,7.17
2023-02-23T04:29:47.880Z,7.11
2023-02-23T04:32:18.610Z,7.12
2023-02-23T04:34:46.140Z,7.17
2023-02-23T04:37:13.693Z,7.31
2023-02-23T04:39:42.933Z,7.36
2023-02-23T04:42:10.626Z,7.06
2023-02-23T04:44:38.061Z,7.26
2023-02-23T04:47:05.509Z,7.05
2023-02-23T04:49:32.929Z,6.97
2023-02-23T04:52:00.351Z,6.85
2023-02-23T04:54:27.709Z,7.01
2023-02-23T04:56:55.140Z,7.18
2023-02-23T04:59:22.604Z,7.59
2023-02-23T05:01:49.999Z,7.62
2023-02-23T05:04:17.428Z,7.68
2023-02-23T05:06:44.853Z,7.43
2023-02-23T05:09:12.132Z,7.64
2023-02-23T05:11:39.352Z,7.69
2023-02-23T05:14:06.833Z,7.63
2023-02-23T05:16:34.229Z,7.52
2023-02-23T05:19:01.771Z,7.71
2023-02-23T05:21:29.072Z,7.71
2023-02-23T05:23:57.377Z,7.75
2023-02-23T05:26:24.833Z,7.19
2023-02-23T05:28:52.174Z,7.12
2023-02-23T05:31:20.688Z,7.49
2023-02-23T05:33:48.316Z,7.40
2023-02-23T05:36:17.748Z,7.25
2023-02-23T05:38:46.289Z,7.19
2023-02-23T05:41:16.409Z,7.29
2023-02-23T05:43:43.717Z,7.42
2023-02-23T05:46:16.813Z,7.33
2023-02-23T05:48:44.249Z,7.25
2023-02-23T05:51:13.992Z,7.47
2023-02-23T05:53:41.976Z,7.27
2023-02-23T05:56:13.574Z,7.40
2023-02-23T05:58:40.894Z,7.48
2023-02-23T06:01:08.291Z,7.22
2023-02-23T06:03:35.870Z,7.44
2023-02-23T06:06:03.243Z,7.48
2023-02-23T06:08:30.742Z,7.59
2023-02-23T06:10:58.130Z,7.50
2023-02-23T06:13:26.410Z,7.69
2023-02-23T06:15:53.698Z,7.62
2023-02-23T06:18:22.326Z,7.70
2023-02-23T06:20:49.995Z,8.02
2023-02-23T06:23:18.956Z,8.15
2023-02-23T06:25:47.045Z,8.36
2023-02-23T06:28:15.455Z,7.92
2023-02-23T06:30:43.138Z,7.84
2023-02-23T06:33:10.449Z,7.60
2023-02-23T06:35:38.142Z,7.72
2023-02-23T06:38:06.441Z,7.45
2023-02-23T06:40:33.859Z,7.85
2023-02-23T06:43:03.581Z,7.77
2023-02-23T06:45:31.868Z,7.85
2023-02-23T06:47:59.987Z,7.27
2023-02-23T06:50:27.843Z,7.34
2023-02-23T06:52:57.646Z,7.46
2023-02-23T06:55:25.285Z,7.58
2023-02-23T06:57:53.595Z,7.38
2023-02-23T07:00:21.949Z,7.23
2023-02-23T07:02:49.432Z,7.13
2023-02-23T07:05:16.920Z,7.14
2023-02-23T07:07:45.676Z,7.24
2023-02-23T07:10:13.275Z,7.04
2023-02-23T07:12:40.720Z,7.03
2023-02-23T07:15:08.897Z,7.20
2023-02-23T07:17:36.864Z,7.45
2023-02-23T07:20:05.157Z,7.31
2023-02-23T07:22:34.179Z,7.77
2023-02-23T07:25:01.808Z,8.05
2023-02-23T07:27:29.278Z,8.22
2023-02-23T07:29:56.881Z,8.52
2023-02-23T07:32:24.564Z,8.37
2023-02-23T07:34:54.016Z,8.05
2023-02-23T07:37:22.074Z,7.67
2023-02-23T07:39:49.647Z,7.58
2023-02-23T07:42:18.136Z,7.27
2023-02-23T07:44:45.566Z,7.25
2023-02-23T07:47:13.106Z,7.32
2023-02-23T07:49:40.535Z,7.63
2023-02-23T07:52:08.401Z,7.54
2023-02-23T07:54:35.664Z,7.66
2023-02-23T07:57:03.380Z,7.43
2023-02-23T07:59:32.245Z,7.57
2023-02-23T08:01:59.620Z,7.34
2023-02-23T08:04:26.988Z,7.61
2023-02-23T08:06:55.225Z,8.00
2023-02-23T08:09:22.792Z,7.56
2023-02-23T08:11:50.215Z,7.86
2023-02-23T08:14:17.529Z,8.12
2023-02-23T08:16:45.752Z,7.90
2023-02-23T08:19:13.192Z,7.97
2023-02-23T08:21:40.674Z,8.00
2023-02-23T08:24:08.108Z,8.01
2023-02-23T08:26:38.121Z,8.07
2023-02-23T08:29:05.390Z,7.92
2023-02-23T08:31:32.786Z,7.99
2023-02-23T08:34:00.299Z,8.16
2023-02-23T08:36:27.706Z,9.27
2023-02-23T08:38:55.367Z,9.41
2023-02-23T08:41:23.083Z,9.31
2023-02-23T08:43:50.355Z,8.86
2023-02-23T08:46:20.388Z,8.84
2023-02-23T08:48:47.720Z,8.98
2023-02-23T08:51:15.689Z,8.74
2023-02-23T08:53:43.097Z,8.83
2023-02-23T08:56:12.875Z,8.83
2023-02-23T08:58:40.489Z,8.72
2023-02-23T09:01:07.904Z,8.83
2023-02-23T09:03:38.197Z,9.04
2023-02-23T09:06:09.815Z,9.04
2023-02-23T09:08:38.304Z,9.03
2023-02-23T09:11:05.992Z,8.66
2023-02-23T09:13:33.731Z,8.64
2023-02-23T09:16:01.285Z,8.83
2023-02-23T09:18:29.500Z,8.94
2023-02-23T09:20:57.225Z,9.18
2023-02-23T09:23:28.293Z,9.09
2023-02-23T09:25:55.634Z,8.94
2023-02-23T09:28:23.066Z,9.05
2023-02-23T09:30:50.324Z,9.04
2023-02-23T09:33:18.298Z,9.24
2023-02-23T09:35:45.647Z,8.95
2023-02-23T09:38:12.973Z,8.81
2023-02-23T09:40:52.753Z,9.07
2023-02-23T09:43:24.246Z,8.38
2023-02-23T09:46:16.254Z,8.10
2023-02-23T09:48:44.221Z,8.08
2023-02-23T09:51:17.348Z,8.34
2023-02-23T09:53:48.949Z,8.64
2023-02-23T09:56:39.264Z,8.53
2023-02-23T09:59:15.601Z,8.49
2023-02-23T10:01:49.230Z,8.29
2023-02-23T10:04:23.819Z,8.22
2023-02-23T10:06:59.983Z,8.05
2023-02-23T10:09:52.712Z,7.88
2023-02-23T10:12:30.500Z,8.12
2023-02-23T10:15:06.576Z,8.15
2023-02-23T10:18:06.311Z,7.85
2023-02-23T10:20:57.676Z,8.08
2023-02-23T10:23:34.092Z,8.17
2023-02-23T10:26:02.928Z,8.35
2023-02-23T10:28:36.762Z,8.39
2023-02-23T10:31:17.096Z,8.52
2023-02-23T10:33:44.797Z,8.76
2023-02-23T10:36:19.676Z,9.06
2023-02-23T10:38:47.292Z,9.41
2023-02-23T10:41:15.145Z,9.44
2023-02-23T10:43:42.746Z,9.27
2023-02-23T10:46:23.487Z,9.39
2023-02-23T10:48:51.375Z,9.33
2023-02-23T10:51:23.476Z,8.90
2023-02-23T10:53:53.044Z,9.44
2023-02-23T10:56:21.414Z,9.36
2023-02-23T10:59:05.633Z,9.13
2023-02-23T11:02:00.302Z,9.23
2023-02-23T11:04:31.271Z,9.20
2023-02-23T11:07:16.430Z,9.68
2023-02-23T11:09:48.154Z,9.32
2023-02-23T11:12:22.831Z,9.73
2023-02-23T11:14:52.290Z,9.20
2023-02-23T11:17:24.297Z,9.64
2023-02-23T11:19:51.879Z,9.51
2023-02-23T11:22:27.120Z,9.42
2023-02-23T11:24:55.575Z,9.47
2023-02-23T11:27:27.021Z,9.62
2023-02-23T11:29:59.285Z,9.43
2023-02-23T11:32:30.844Z,9.49
2023-02-23T11:35:31.230Z,9.20
2023-02-23T11:37:59.011Z,9.25
2023-02-23T11:40:26.234Z,9.64
2023-02-23T11:43:01.240Z,9.92
2023-02-23T11:45:34.237Z,10.16
2023-02-23T11:48:02.266Z,9.65
2023-02-23T11:50:32.590Z,9.60
2023-02-23T11:53:17.212Z,9.53
2023-02-23T11:55:55.254Z,9.77
2023-02-23T11:58:27.177Z,9.97
2023-02-23T12:01:03.565Z,9.97
2023-02-23T12:03:33.327Z,9.84
2023-02-23T12:06:02.377Z,10.09
2023-02-23T12:08:35.982Z,10.27
2023-02-23T12:11:07.298Z,10.53
2023-02-23T12:13:50.848Z,10.70
2023-02-23T12:16:24.781Z,10.58
2023-02-23T12:19:04.990Z,10.43
2023-02-23T12:21:34.827Z,10.50
2023-02-23T12:24:08.157Z,10.61
2023-02-23T12:26:49.334Z,10.98
2023-02-23T12:29:33.643Z,10.49
2023-02-23T12:32:03.339Z,10.25
2023-02-23T12:34:36.468Z,10.45
2023-02-23T12:37:29.294Z,10.43
2023-02-23T12:40:02.308Z,10.33
2023-02-23T12:42:45.742Z,10.87
2023-02-23T12:45:43.358Z,10.81
2023-02-23T12:48:29.220Z,10.62
2023-02-23T12:51:07.210Z,10.58
2023-02-23T12:53:34.582Z,10.59
2023-02-23T12:56:27.467Z,10.02
2023-02-23T12:59:14.439Z,10.18
2023-02-23T13:02:00.809Z,10.60
2023-02-23T13:05:24.549Z,10.67
2023-02-23T13:08:11.584Z,10.63
2023-02-23T13:10:55.639Z,10.26
2023-02-23T13:13:31.587Z,10.51
2023-02-23T13:16:34.916Z,10.74
2023-02-23T13:19:25.278Z,11.07
2023-02-23T13:22:21.934Z,9.99
2023-02-23T13:24:49.867Z,9.93
2023-02-23T13:27:34.047Z,10.05
2023-02-23T13:30:02.326Z,10.14
2023-02-23T13:32:32.612Z,10.09
2023-02-23T13:35:14.524Z,10.02
2023-02-23T13:37:51.393Z,10.06
2023-02-23T13:40:31.143Z,10.15
2023-02-23T13:43:23.686Z,10.28
2023-02-23T13:46:14.633Z,10.22
2023-02-23T13:49:00.531Z,10.49
2023-02-23T13:51:43.799Z,10.31
2023-02-23T13:54:15.092Z,10.22
2023-02-23T13:56:47.068Z,10.15
2023-02-23T13:59:29.692Z,10.39
2023-02-23T14:01:58.011Z,10.46
2023-02-23T14:04:28.214Z,10.55
2023-02-23T14:07:01.875Z,10.51
2023-02-23T14:09:36.788Z,10.76
2023-02-23T14:12:38.970Z,10.65
2023-02-23T14:15:25.439Z,11.02
2023-02-23T14:18:15.470Z,10.84
2023-02-23T14:21:15.554Z,10.63
2023-02-23T14:24:03.150Z,10.49
2023-02-23T14:26:30.376Z,10.61
2023-02-23T14:29:20.126Z,10.55
2023-02-23T14:32:12.605Z,10.79
2023-02-23T14:35:00.693Z,10.80
2023-02-23T14:37:40.956Z,10.53
2023-02-23T14:40:15.740Z,10.29
2023-02-23T14:42:47.531Z,10.23
2023-02-23T14:45:29.240Z,10.23
2023-02-23T14:48:00.012Z,10.51
2023-02-23T14:50:30.787Z,10.47
2023-02-23T14:52:58.544Z,10.31
2023-02-23T14:55:33.055Z,10.45
2023-02-23T14:58:02.133Z,10.69
2023-02-23T15:00:33.106Z,10.37
2023-02-23T15:03:03.727Z,10.66
2023-02-23T15:05:37.355Z,10.71
2023-02-23T15:08:06.836Z,10.89
2023-02-23T15:10:39.177Z,10.84
2023-02-23T15:13:11.849Z,10.28
2023-02-23T15:15:45.394Z,10.46
2023-02-23T15:18:32.001Z,10.63
2023-02-23T15:20:59.513Z,10.40
2023-02-23T15:23:27.356Z,10.33
2023-02-23T15:25:54.965Z,10.50
2023-02-23T15:28:28.112Z,10.56
2023-02-23T15:31:02.049Z,10.51
2023-02-23T15:33:30.380Z,10.30
2023-02-23T15:36:06.905Z,10.50
2023-02-23T15:38:43.876Z,10.32
2023-02-23T15:41:39.623Z,10.48
2023-02-23T15:44:13.415Z,10.58
2023-02-23T15:46:42.109Z,10.71
2023-02-23T15:49:14.439Z,10.80
2023-02-23T15:51:50.288Z,10.70
2023-02-23T15:54:24.812Z,10.76
2023-02-23T15:56:57.238Z,10.88
2023-02-23T15:59:38.035Z,10.41
2023-02-23T16:02:16.681Z,10.48
2023-02-23T16:04:49.018Z,10.60
2023-02-23T16:07:21.986Z,10.54
2023-02-23T16:09:55.791Z,10.66
2023-02-23T16:12:32.646Z,10.58
2023-02-23T16:15:02.313Z,10.41
2023-02-23T16:17:53.701Z,10.61
2023-02-23T16:20:29.322Z,10.66
2023-02-23T16:22:58.127Z,10.35
2023-02-23T16:25:27.255Z,10.37
2023-02-23T16:28:01.335Z,10.35
2023-02-23T16:30:32.145Z,10.39
2023-02-23T16:33:24.253Z,10.62
2023-02-23T16:36:10.593Z,10.52
2023-02-23T16:38:41.161Z,10.72
2023-02-23T16:41:22.381Z,10.75
2023-02-23T16:43:52.003Z,10.49
2023-02-23T16:46:21.134Z,10.46
2023-02-23T16:48:48.940Z,10.39
2023-02-23T16:51:19.064Z,10.45
2023-02-23T16:53:46.632Z,10.41
2023-02-23T16:56:20.224Z,10.49
2023-02-23T16:58:57.173Z,10.83
2023-02-23T17:01:24.802Z,10.91
2023-02-23T17:03:54.085Z,10.68
2023-02-23T17:06:22.751Z,10.61
2023-02-23T17:08:58.093Z,10.68
2023-02-23T17:11:26.640Z,10.68
2023-02-23T17:13:54.078Z,10.84
2023-02-23T17:16:21.825Z,10.91
2023-02-23T17:18:49.339Z,10.75
2023-02-23T17:21:23.003Z,10.73
2023-02-23T17:23:51.646Z,10.69
2023-02-23T17:26:23.821Z,10.75
2023-02-23T17:28:51.860Z,10.67
2023-02-23T17:31:20.164Z,10.41
2023-02-23T17:33:48.300Z,10.33
2023-02-23T17:36:17.632Z,10.28
2023-02-23T17:38:45.153Z,10.50
2023-02-23T17:41:16.570Z,10.54
2023-02-23T17:43:44.096Z,10.62
2023-02-23T17:46:12.974Z,10.62
2023-02-23T17:48:44.486Z,10.63
2023-02-23T17:51:13.197Z,10.51
2023-02-23T17:53:40.823Z,10.41
2023-02-23T17:56:09.143Z,10.40
2023-02-23T17:58:37.459Z,10.46
2023-02-23T18:01:07.078Z,10.29
2023-02-23T18:03:36.385Z,10.26
2023-02-23T18:06:09.380Z,10.30
2023-02-23T18:08:37.907Z,10.31
2023-02-23T18:11:05.680Z,10.50
2023-02-23T18:13:34.313Z,10.54
2023-02-23T18:16:06.248Z,10.50
2023-02-23T18:18:34.161Z,10.59
2023-02-23T18:21:02.814Z,10.66
2023-02-23T18:23:37.009Z,10.46
2023-02-23T18:26:07.288Z,10.54
2023-02-23T18:28:35.307Z,10.67
2023-02-23T18:31:02.959Z,10.25
2023-02-23T18:33:31.536Z,10.23
2023-02-23T18:35:59.073Z,10.31
2023-02-23T18:38:26.596Z,10.39
2023-02-23T18:40:53.904Z,10.30
2023-02-23T18:43:21.366Z,10.32
2023-02-23T18:45:48.825Z,10.20
2023-02-23T18:48:16.394Z,10.20
2023-02-23T18:50:44.035Z,10.29
2023-02-23T18:53:11.526Z,10.23
2023-02-23T18:55:38.789Z,10.11
2023-02-23T18:58:07.824Z,10.13
2023-02-23T19:00:40.202Z,10.11
2023-02-23T19:03:07.739Z,9.88
2023-02-23T19:05:37.681Z,9.88
2023-02-23T19:08:09.558Z,9.91
2023-02-23T19:10:37.076Z,9.88
2023-02-23T19:13:08.960Z,9.91
2023-02-23T19:15:36.380Z,9.95
2023-02-23T19:18:04.195Z,9.99
2023-02-23T19:20:35.912Z,10.01
2023-02-23T19:23:03.471Z,9.91
2023-02-23T19:25:31.925Z,10.02
2023-02-23T19:28:00.049Z,10.19
2023-02-23T19:30:27.501Z,10.16
2023-02-23T19:32:54.874Z,10.17
2023-02-23T19:35:22.419Z,10.16
2023-02-23T19:37:51.823Z,10.20
2023-02-23T19:40:22.868Z,10.20
2023-02-23T19:42:51.215Z,10.23
2023-02-23T19:45:18.742Z,10.36
2023-02-23T19:47:46.352Z,10.56
2023-02-23T19:50:16.937Z,10.56
2023-02-23T19:52:45.295Z,10.31
2023-02-23T19:55:13.416Z,10.20
2023-02-23T19:57:41.213Z,10.28
2023-02-23T20:00:11.629Z,10.20
2023-02-23T20:02:42.778Z,10.19
2023-02-23T20:05:15.140Z,10.20
2023-02-23T20:07:43.354Z,10.14
2023-02-23T20:10:16.196Z,10.30
2023-02-23T20:12:44.604Z,10.26
2023-02-23T20:15:14.859Z,10.27
2023-02-23T20:17:42.592Z,10.26
2023-02-23T20:20:11.336Z,10.12
2023-02-23T20:22:41.407Z,10.04
2023-02-23T20:25:12.643Z,10.11
2023-02-23T20:27:39.860Z,10.11
2023-02-23T20:30:07.811Z,10.20
2023-02-23T20:32:35.431Z,10.17
2023-02-23T20:35:03.071Z,10.11
2023-02-23T20:37:31.388Z,10.17
2023-02-23T20:39:58.922Z,10.08
2023-02-23T20:42:28.393Z,10.09
2023-02-23T20:44:56.054Z,10.23
2023-02-23T20:47:24.213Z,10.43
2023-02-23T20:49:51.563Z,10.22
2023-02-23T20:52:18.973Z,10.21
2023-02-23T20:54:46.312Z,10.18
2023-02-23T20:57:13.632Z,10.01
2023-02-23T20:59:43.301Z,10.08
2023-02-23T21:02:13.973Z,9.89
2023-02-23T21:04:44.275Z,9.88
2023-02-23T21:07:13.538Z,9.90
2023-02-23T21:09:41.030Z,9.86
2023-02-23T21:12:12.671Z,9.88
2023-02-23T21:14:40.132Z,9.80
2023-02-23T21:20:14.569Z,9.77
2023-02-23T21:22:42.042Z,9.74
2023-02-23T21:25:10.953Z,9.72
2023-02-23T21:27:38.669Z,9.89
2023-02-23T21:30:08.205Z,9.92
2023-02-23T21:32:41.321Z,9.96
2023-02-23T21:35:10.944Z,9.80
2023-02-23T21:37:39.388Z,9.85
2023-02-23T21:40:12.665Z,9.83
2023-02-23T21:42:41.714Z,9.76
2023-02-23T21:45:12.503Z,9.98
2023-02-23T21:47:41.748Z,9.89
2023-02-23T21:50:13.581Z,9.79
2023-02-23T21:52:43.690Z,9.65
2023-02-23T21:55:21.248Z,9.65
2023-02-23T21:57:49.339Z,9.83
2023-02-23T22:00:16.810Z,9.68
2023-02-23T22:02:46.736Z,9.59
2023-02-23T22:05:15.941Z,9.57
2023-02-23T22:07:52.068Z,9.63
2023-02-23T22:10:21.834Z,9.63
2023-02-23T22:12:56.702Z,9.64
2023-02-23T22:15:29.886Z,9.67
2023-02-23T22:17:57.336Z,9.66
2023-02-23T22:20:26.202Z,9.66
2023-02-23T22:22:53.684Z,9.62
2023-02-23T22:25:21.263Z,9.64
2023-02-23T22:27:48.721Z,9.74
2023-02-23T22:30:16.332Z,10.97
2023-02-23T22:32:44.453Z,10.73
2023-02-23T22:35:12.107Z,10.26
2023-02-23T22:37:40.127Z,10.32
2023-02-23T22:40:12.959Z,10.20
2023-02-23T22:42:43.277Z,9.61
2023-02-23T22:45:11.514Z,9.82
2023-02-23T22:47:39.157Z,9.82
2023-02-23T22:50:07.110Z,9.77
2023-02-23T22:52:34.788Z,9.70
2023-02-23T22:55:03.959Z,9.67
2023-02-23T22:57:31.321Z,9.61
2023-02-23T23:00:07.356Z,9.52
2023-02-23T23:02:36.387Z,9.51
2023-02-23T23:05:04.069Z,9.72
2023-02-23T23:07:31.817Z,9.81
2023-02-23T23:10:03.758Z,9.80
2023-02-23T23:12:34.401Z,9.88
2023-02-23T23:15:05.104Z,10.00
2023-02-23T23:17:32.918Z,9.98
2023-02-23T23:20:00.551Z,10.01
2023-02-23T23:22:28.142Z,10.01
2023-02-23T23:24:56.981Z,9.99
2023-02-23T23:27:24.940Z,9.83
2023-02-23T23:29:52.443Z,9.80
2023-02-23T23:32:27.485Z,9.85
2023-02-23T23:34:57.771Z,9.89
2023-02-23T23:37:29.169Z,9.76
2023-02-23T23:40:00.150Z,9.70
2023-02-23T23:42:27.696Z,9.83
2023-02-23T23:44:56.943Z,9.77
2023-02-23T23:47:24.719Z,9.53
2023-02-23T23:49:53.785Z,9.61
2023-02-23T23:52:21.213Z,9.71
2023-02-23T23:54:49.000Z,9.71
2023-02-23T23:57:17.397Z,9.71
2023-02-23T23:59:46.355Z,9.64
